sensor_id;sensor_type;location;lat;lon;timestamp;temperature;humidity
17762;DHT22;9005;48.838;10.112;2023-07-13T00:00:25;18.70;99.90
17762;DHT22;9005;48.838;10.112;2023-07-13T00:02:52;18.70;99.90
17762;DHT22;9005;48.838;10.112;2023-07-13T00:05:19;18.80;99.90
17762;DHT22;9005;48.838;10.112;2023-07-13T00:07:48;18.80;99.90
17762;DHT22;9005;48.838;10.112;2023-07-13T00:10:15;18.80;99.90
17762;DHT22;9005;48.838;10.112;2023-07-13T00:12:43;18.80;99.90
17762;DHT22;9005;48.838;10.112;2023-07-13T00:15:13;18.70;99.90
17762;DHT22;9005;48.838;10.112;2023-07-13T00:17:42;18.80;99.90
17762;DHT22;9005;48.838;10.112;2023-07-13T00:20:10;18.70;99.90
17762;DHT22;9005;48.838;10.112;2023-07-13T00:22:38;18.70;99.90
17762;DHT22;9005;48.838;10.112;2023-07-13T00:25:08;18.70;99.90
17762;DHT22;9005;48.838;10.112;2023-07-13T00:27:35;18.60;99.90
17762;DHT22;9005;48.838;10.112;2023-07-13T00:30:02;18.60;99.90
17762;DHT22;9005;48.838;10.112;2023-07-13T00:32:30;18.60;99.90
17762;DHT22;9005;48.838;10.112;2023-07-13T00:34:57;18.50;99.90
17762;DHT22;9005;48.838;10.112;2023-07-13T00:37:25;18.60;99.90
17762;DHT22;9005;48.838;10.112;2023-07-13T00:39:52;18.50;99.90
17762;DHT22;9005;48.838;10.112;2023-07-13T00:42:21;18.50;99.90
17762;DHT22;9005;48.838;10.112;2023-07-13T00:45:01;18.50;99.90
17762;DHT22;9005;48.838;10.112;2023-07-13T00:47:28;18.50;99.90
17762;DHT22;9005;48.838;10.112;2023-07-13T00:49:55;18.40;99.90
17762;DHT22;9005;48.838;10.112;2023-07-13T00:52:22;18.40;99.90
17762;DHT22;9005;48.838;10.112;2023-07-13T00:54:49;18.30;99.90
17762;DHT22;9005;48.838;10.112;2023-07-13T00:57:18;18.30;99.90
17762;DHT22;9005;48.838;10.112;2023-07-13T00:59:51;18.30;99.90
17762;DHT22;9005;48.838;10.112;2023-07-13T01:02:18;18.30;99.90
17762;DHT22;9005;48.838;10.112;2023-07-13T01:04:47;18.30;99.90
17762;DHT22;9005;48.838;10.112;2023-07-13T01:07:13;18.30;99.90
17762;DHT22;9005;48.838;10.112;2023-07-13T01:09:40;18.20;99.90
17762;DHT22;9005;48.838;10.112;2023-07-13T01:12:08;18.30;99.90
17762;DHT22;9005;48.838;10.112;2023-07-13T01:14:35;16.80;99.90
17762;DHT22;9005;48.838;10.112;2023-07-13T01:17:04;18.40;99.90
17762;DHT22;9005;48.838;10.112;2023-07-13T01:19:36;18.40;99.90
17762;DHT22;9005;48.838;10.112;2023-07-13T01:22:07;18.40;99.90
17762;DHT22;9005;48.838;10.112;2023-07-13T01:24:37;19.10;99.90
17762;DHT22;9005;48.838;10.112;2023-07-13T01:27:06;18.40;99.90
17762;DHT22;9005;48.838;10.112;2023-07-13T01:29:34;18.40;99.90
17762;DHT22;9005;48.838;10.112;2023-07-13T01:32:08;18.40;99.90
17762;DHT22;9005;48.838;10.112;2023-07-13T01:34:35;18.50;99.90
17762;DHT22;9005;48.838;10.112;2023-07-13T01:37:02;18.50;99.90
17762;DHT22;9005;48.838;10.112;2023-07-13T01:39:31;18.50;99.90
17762;DHT22;9005;48.838;10.112;2023-07-13T01:41:58;18.50;99.90
17762;DHT22;9005;48.838;10.112;2023-07-13T01:44:25;18.50;99.90
17762;DHT22;9005;48.838;10.112;2023-07-13T01:46:52;18.50;99.90
17762;DHT22;9005;48.838;10.112;2023-07-13T01:49:19;18.40;99.90
17762;DHT22;9005;48.838;10.112;2023-07-13T01:51:46;18.40;99.90
17762;DHT22;9005;48.838;10.112;2023-07-13T01:54:13;18.40;99.90
17762;DHT22;9005;48.838;10.112;2023-07-13T01:56:41;18.30;99.90
17762;DHT22;9005;48.838;10.112;2023-07-13T01:59:07;18.30;99.90
17762;DHT22;9005;48.838;10.112;2023-07-13T02:01:34;18.30;99.90
17762;DHT22;9005;48.838;10.112;2023-07-13T02:04:01;18.30;99.90
17762;DHT22;9005;48.838;10.112;2023-07-13T02:06:28;18.20;99.90
17762;DHT22;9005;48.838;10.112;2023-07-13T02:08:55;18.20;99.90
17762;DHT22;9005;48.838;10.112;2023-07-13T02:11:22;18.20;99.90
17762;DHT22;9005;48.838;10.112;2023-07-13T02:13:50;18.10;99.90
17762;DHT22;9005;48.838;10.112;2023-07-13T02:16:17;18.20;99.90
17762;DHT22;9005;48.838;10.112;2023-07-13T02:18:44;18.00;99.90
17762;DHT22;9005;48.838;10.112;2023-07-13T02:21:11;18.00;99.90
17762;DHT22;9005;48.838;10.112;2023-07-13T02:23:37;17.90;99.90
17762;DHT22;9005;48.838;10.112;2023-07-13T02:26:04;17.90;99.90
17762;DHT22;9005;48.838;10.112;2023-07-13T02:28:31;17.80;99.90
17762;DHT22;9005;48.838;10.112;2023-07-13T02:31:06;17.70;99.90
17762;DHT22;9005;48.838;10.112;2023-07-13T02:33:33;17.70;99.90
17762;DHT22;9005;48.838;10.112;2023-07-13T02:36:00;17.60;99.90
17762;DHT22;9005;48.838;10.112;2023-07-13T02:38:26;17.50;99.90
17762;DHT22;9005;48.838;10.112;2023-07-13T02:40:53;17.50;99.90
17762;DHT22;9005;48.838;10.112;2023-07-13T02:43:20;17.40;99.90
17762;DHT22;9005;48.838;10.112;2023-07-13T02:45:47;17.40;99.90
17762;DHT22;9005;48.838;10.112;2023-07-13T02:48:15;17.30;99.90
17762;DHT22;9005;48.838;10.112;2023-07-13T02:50:41;17.30;99.90
17762;DHT22;9005;48.838;10.112;2023-07-13T02:53:08;17.20;99.90
17762;DHT22;9005;48.838;10.112;2023-07-13T02:55:35;17.20;99.90
17762;DHT22;9005;48.838;10.112;2023-07-13T02:58:02;17.10;99.90
17762;DHT22;9005;48.838;10.112;2023-07-13T03:00:29;17.10;99.90
17762;DHT22;9005;48.838;10.112;2023-07-13T03:02:56;17.00;99.90
17762;DHT22;9005;48.838;10.112;2023-07-13T03:05:25;16.90;99.90
17762;DHT22;9005;48.838;10.112;2023-07-13T03:07:51;16.90;99.90
17762;DHT22;9005;48.838;10.112;2023-07-13T03:10:18;16.90;99.90
17762;DHT22;9005;48.838;10.112;2023-07-13T03:12:45;16.80;99.90
17762;DHT22;9005;48.838;10.112;2023-07-13T03:15:12;16.80;99.90
17762;DHT22;9005;48.838;10.112;2023-07-13T03:17:39;16.70;99.90
17762;DHT22;9005;48.838;10.112;2023-07-13T03:20:07;16.70;99.90
17762;DHT22;9005;48.838;10.112;2023-07-13T03:22:35;16.60;99.90
17762;DHT22;9005;48.838;10.112;2023-07-13T03:25:02;16.60;99.90
17762;DHT22;9005;48.838;10.112;2023-07-13T03:27:29;16.50;99.90
17762;DHT22;9005;48.838;10.112;2023-07-13T03:29:56;16.50;99.90
17762;DHT22;9005;48.838;10.112;2023-07-13T03:32:23;16.50;99.90
17762;DHT22;9005;48.838;10.112;2023-07-13T03:34:49;16.40;99.90
17762;DHT22;9005;48.838;10.112;2023-07-13T03:37:16;16.40;99.90
17762;DHT22;9005;48.838;10.112;2023-07-13T03:39:44;16.30;99.90
17762;DHT22;9005;48.838;10.112;2023-07-13T03:42:11;16.30;99.90
17762;DHT22;9005;48.838;10.112;2023-07-13T03:44:39;16.30;99.90
17762;DHT22;9005;48.838;10.112;2023-07-13T03:47:06;16.20;99.90
17762;DHT22;9005;48.838;10.112;2023-07-13T03:49:34;16.20;99.90
17762;DHT22;9005;48.838;10.112;2023-07-13T03:52:01;16.20;99.90
17762;DHT22;9005;48.838;10.112;2023-07-13T03:54:28;16.20;99.90
17762;DHT22;9005;48.838;10.112;2023-07-13T03:56:57;16.20;99.90
17762;DHT22;9005;48.838;10.112;2023-07-13T03:59:23;16.20;99.90
17762;DHT22;9005;48.838;10.112;2023-07-13T04:01:50;16.20;99.90
17762;DHT22;9005;48.838;10.112;2023-07-13T04:04:17;16.20;99.90
17762;DHT22;9005;48.838;10.112;2023-07-13T04:06:44;16.20;99.90
17762;DHT22;9005;48.838;10.112;2023-07-13T04:09:10;16.20;99.90
17762;DHT22;9005;48.838;10.112;2023-07-13T04:11:37;16.20;99.90
17762;DHT22;9005;48.838;10.112;2023-07-13T04:14:06;16.30;99.90
17762;DHT22;9005;48.838;10.112;2023-07-13T04:16:33;16.30;99.90
17762;DHT22;9005;48.838;10.112;2023-07-13T04:18:59;16.30;99.90
17762;DHT22;9005;48.838;10.112;2023-07-13T04:21:27;16.30;99.90
17762;DHT22;9005;48.838;10.112;2023-07-13T04:23:54;16.30;99.90
17762;DHT22;9005;48.838;10.112;2023-07-13T04:26:22;16.40;99.90
17762;DHT22;9005;48.838;10.112;2023-07-13T04:28:49;16.40;99.90
17762;DHT22;9005;48.838;10.112;2023-07-13T04:31:17;16.40;99.90
17762;DHT22;9005;48.838;10.112;2023-07-13T04:33:44;16.40;99.90
17762;DHT22;9005;48.838;10.112;2023-07-13T04:36:11;16.50;99.90
17762;DHT22;9005;48.838;10.112;2023-07-13T04:38:38;16.50;99.90
17762;DHT22;9005;48.838;10.112;2023-07-13T04:41:07;16.60;99.90
17762;DHT22;9005;48.838;10.112;2023-07-13T04:43:34;16.60;99.90
17762;DHT22;9005;48.838;10.112;2023-07-13T04:46:04;16.60;99.90
17762;DHT22;9005;48.838;10.112;2023-07-13T04:48:33;16.70;99.90
17762;DHT22;9005;48.838;10.112;2023-07-13T04:51:00;16.70;99.90
17762;DHT22;9005;48.838;10.112;2023-07-13T04:53:28;16.70;99.90
17762;DHT22;9005;48.838;10.112;2023-07-13T04:55:55;16.80;99.90
17762;DHT22;9005;48.838;10.112;2023-07-13T04:58:23;16.80;99.90
17762;DHT22;9005;48.838;10.112;2023-07-13T05:00:50;16.90;99.90
17762;DHT22;9005;48.838;10.112;2023-07-13T05:03:16;16.90;99.90
17762;DHT22;9005;48.838;10.112;2023-07-13T05:05:54;16.90;99.90
17762;DHT22;9005;48.838;10.112;2023-07-13T05:08:21;16.90;99.90
17762;DHT22;9005;48.838;10.112;2023-07-13T05:10:48;16.90;99.90
17762;DHT22;9005;48.838;10.112;2023-07-13T05:13:15;16.90;99.90
17762;DHT22;9005;48.838;10.112;2023-07-13T05:15:41;16.90;99.90
17762;DHT22;9005;48.838;10.112;2023-07-13T05:18:08;16.90;99.90
17762;DHT22;9005;48.838;10.112;2023-07-13T05:20:35;17.00;99.90
17762;DHT22;9005;48.838;10.112;2023-07-13T05:23:03;17.00;99.90
17762;DHT22;9005;48.838;10.112;2023-07-13T05:25:30;17.00;99.90
17762;DHT22;9005;48.838;10.112;2023-07-13T05:27:57;17.00;99.90
17762;DHT22;9005;48.838;10.112;2023-07-13T05:30:23;17.10;99.90
17762;DHT22;9005;48.838;10.112;2023-07-13T05:32:50;17.10;99.90
17762;DHT22;9005;48.838;10.112;2023-07-13T05:35:17;17.10;99.90
17762;DHT22;9005;48.838;10.112;2023-07-13T05:37:43;17.20;99.90
17762;DHT22;9005;48.838;10.112;2023-07-13T05:40:12;17.20;99.90
17762;DHT22;9005;48.838;10.112;2023-07-13T05:42:38;17.20;99.90
17762;DHT22;9005;48.838;10.112;2023-07-13T05:45:06;17.20;99.90
17762;DHT22;9005;48.838;10.112;2023-07-13T05:47:33;17.20;99.90
17762;DHT22;9005;48.838;10.112;2023-07-13T05:49:59;17.20;99.90
17762;DHT22;9005;48.838;10.112;2023-07-13T06:12:05;17.80;99.90
17762;DHT22;9005;48.838;10.112;2023-07-13T06:14:33;17.80;99.90
17762;DHT22;9005;48.838;10.112;2023-07-13T06:17:00;17.70;99.90
17762;DHT22;9005;48.838;10.112;2023-07-13T06:19:28;17.70;99.90
17762;DHT22;9005;48.838;10.112;2023-07-13T06:21:55;17.70;99.90
17762;DHT22;9005;48.838;10.112;2023-07-13T06:24:23;17.70;99.90
17762;DHT22;9005;48.838;10.112;2023-07-13T06:26:50;17.70;99.90
17762;DHT22;9005;48.838;10.112;2023-07-13T06:29:17;17.70;99.90
17762;DHT22;9005;48.838;10.112;2023-07-13T06:31:45;17.70;99.90
17762;DHT22;9005;48.838;10.112;2023-07-13T06:34:12;17.70;99.90
17762;DHT22;9005;48.838;10.112;2023-07-13T06:36:38;17.80;99.90
17762;DHT22;9005;48.838;10.112;2023-07-13T06:39:06;17.70;99.90
17762;DHT22;9005;48.838;10.112;2023-07-13T06:41:33;17.80;99.90
17762;DHT22;9005;48.838;10.112;2023-07-13T06:44:00;17.80;99.90
17762;DHT22;9005;48.838;10.112;2023-07-13T06:46:29;17.70;99.90
17762;DHT22;9005;48.838;10.112;2023-07-13T06:48:57;17.70;99.90
17762;DHT22;9005;48.838;10.112;2023-07-13T06:51:24;17.70;99.90
17762;DHT22;9005;48.838;10.112;2023-07-13T06:53:51;17.70;99.90
17762;DHT22;9005;48.838;10.112;2023-07-13T06:56:18;17.70;99.90
17762;DHT22;9005;48.838;10.112;2023-07-13T06:58:44;17.70;99.90
17762;DHT22;9005;48.838;10.112;2023-07-13T07:01:11;17.70;99.90
17762;DHT22;9005;48.838;10.112;2023-07-13T07:03:38;17.70;99.90
17762;DHT22;9005;48.838;10.112;2023-07-13T07:06:13;17.80;99.90
17762;DHT22;9005;48.838;10.112;2023-07-13T07:08:40;17.80;99.90
17762;DHT22;9005;48.838;10.112;2023-07-13T07:11:09;17.90;99.90
17762;DHT22;9005;48.838;10.112;2023-07-13T07:13:36;18.10;99.60
17762;DHT22;9005;48.838;10.112;2023-07-13T07:16:03;18.20;99.50
17762;DHT22;9005;48.838;10.112;2023-07-13T07:18:30;18.40;98.60
17762;DHT22;9005;48.838;10.112;2023-07-13T07:20:57;18.60;99.30
17762;DHT22;9005;48.838;10.112;2023-07-13T07:23:25;18.80;99.20
17762;DHT22;9005;48.838;10.112;2023-07-13T07:25:51;19.00;95.00
17762;DHT22;9005;48.838;10.112;2023-07-13T07:28:18;19.20;93.70
17762;DHT22;9005;48.838;10.112;2023-07-13T07:30:46;19.20;92.80
17762;DHT22;9005;48.838;10.112;2023-07-13T07:33:13;19.20;93.40
17762;DHT22;9005;48.838;10.112;2023-07-13T08:17:32;19.30;83.70
17762;DHT22;9005;48.838;10.112;2023-07-13T08:19:58;19.20;84.30
17762;DHT22;9005;48.838;10.112;2023-07-13T08:22:25;19.00;83.60
17762;DHT22;9005;48.838;10.112;2023-07-13T08:24:52;19.00;84.60
17762;DHT22;9005;48.838;10.112;2023-07-13T08:27:22;18.90;83.80
17762;DHT22;9005;48.838;10.112;2023-07-13T08:29:49;19.00;84.70
17762;DHT22;9005;48.838;10.112;2023-07-13T08:32:18;19.00;85.80
17762;DHT22;9005;48.838;10.112;2023-07-13T08:34:45;19.00;86.60
17762;DHT22;9005;48.838;10.112;2023-07-13T08:37:12;19.10;85.70
17762;DHT22;9005;48.838;10.112;2023-07-13T08:39:39;19.10;89.30
17762;DHT22;9005;48.838;10.112;2023-07-13T08:42:13;19.10;89.10
17762;DHT22;9005;48.838;10.112;2023-07-13T08:44:50;19.20;90.00
17762;DHT22;9005;48.838;10.112;2023-07-13T08:47:21;19.40;87.80
17762;DHT22;9005;48.838;10.112;2023-07-13T09:17:27;20.80;74.70
17762;DHT22;9005;48.838;10.112;2023-07-13T09:19:59;20.70;72.20
17762;DHT22;9005;48.838;10.112;2023-07-13T09:22:31;20.60;74.90
17762;DHT22;9005;48.838;10.112;2023-07-13T09:25:04;20.70;73.00
17762;DHT22;9005;48.838;10.112;2023-07-13T09:27:36;20.80;75.40
17762;DHT22;9005;48.838;10.112;2023-07-13T09:30:20;21.00;70.90
17762;DHT22;9005;48.838;10.112;2023-07-13T09:32:53;21.20;70.80
17762;DHT22;9005;48.838;10.112;2023-07-13T09:35:25;21.30;70.10
17762;DHT22;9005;48.838;10.112;2023-07-13T09:37:58;21.40;70.00
17762;DHT22;9005;48.838;10.112;2023-07-13T09:40:30;21.40;61.00
17762;DHT22;9005;48.838;10.112;2023-07-13T09:42:59;21.50;51.20
17762;DHT22;9005;48.838;10.112;2023-07-13T09:45:30;21.50;48.60
17762;DHT22;9005;48.838;10.112;2023-07-13T09:48:05;21.40;48.50
17762;DHT22;9005;48.838;10.112;2023-07-13T09:50:34;21.40;50.00
17762;DHT22;9005;48.838;10.112;2023-07-13T09:53:01;21.50;50.30
17762;DHT22;9005;48.838;10.112;2023-07-13T09:55:31;21.60;47.30
17762;DHT22;9005;48.838;10.112;2023-07-13T09:58:03;21.70;48.60
17762;DHT22;9005;48.838;10.112;2023-07-13T10:00:31;21.80;48.00
17762;DHT22;9005;48.838;10.112;2023-07-13T10:03:05;22.00;47.30
17762;DHT22;9005;48.838;10.112;2023-07-13T10:05:41;22.00;45.10
17762;DHT22;9005;48.838;10.112;2023-07-13T10:08:21;22.00;46.10
17762;DHT22;9005;48.838;10.112;2023-07-13T10:10:53;22.10;45.80
17762;DHT22;9005;48.838;10.112;2023-07-13T10:13:30;22.10;44.10
17762;DHT22;9005;48.838;10.112;2023-07-13T10:15:58;22.20;43.70
17762;DHT22;9005;48.838;10.112;2023-07-13T10:18:26;22.10;44.30
17762;DHT22;9005;48.838;10.112;2023-07-13T10:21:08;22.10;45.20
17762;DHT22;9005;48.838;10.112;2023-07-13T10:23:36;22.20;46.20
17762;DHT22;9005;48.838;10.112;2023-07-13T10:26:05;22.20;42.40
17762;DHT22;9005;48.838;10.112;2023-07-13T10:28:37;22.10;42.70
17762;DHT22;9005;48.838;10.112;2023-07-13T10:31:10;22.30;45.20
17762;DHT22;9005;48.838;10.112;2023-07-13T10:33:38;22.80;43.60
17762;DHT22;9005;48.838;10.112;2023-07-13T10:36:14;23.60;41.50
17762;DHT22;9005;48.838;10.112;2023-07-13T10:38:43;23.80;39.30
17762;DHT22;9005;48.838;10.112;2023-07-13T10:41:15;23.80;39.00
17762;DHT22;9005;48.838;10.112;2023-07-13T10:43:46;24.10;36.90
17762;DHT22;9005;48.838;10.112;2023-07-13T10:46:17;24.60;30.30
17762;DHT22;9005;48.838;10.112;2023-07-13T10:48:48;24.30;29.70
17762;DHT22;9005;48.838;10.112;2023-07-13T10:51:18;24.20;30.00
17762;DHT22;9005;48.838;10.112;2023-07-13T10:53:47;24.30;30.80
17762;DHT22;9005;48.838;10.112;2023-07-13T10:56:34;24.40;31.50
17762;DHT22;9005;48.838;10.112;2023-07-13T10:59:11;24.80;31.80
17762;DHT22;9005;48.838;10.112;2023-07-13T11:01:40;25.30;29.40
17762;DHT22;9005;48.838;10.112;2023-07-13T11:04:20;25.70;29.50
17762;DHT22;9005;48.838;10.112;2023-07-13T11:06:52;25.90;25.60
17762;DHT22;9005;48.838;10.112;2023-07-13T11:09:37;25.80;26.70
17762;DHT22;9005;48.838;10.112;2023-07-13T11:12:08;25.70;26.00
17762;DHT22;9005;48.838;10.112;2023-07-13T11:14:43;25.60;25.60
17762;DHT22;9005;48.838;10.112;2023-07-13T11:17:34;25.60;28.10
17762;DHT22;9005;48.838;10.112;2023-07-13T11:20:19;25.60;28.60
17762;DHT22;9005;48.838;10.112;2023-07-13T11:22:49;25.80;27.10
17762;DHT22;9005;48.838;10.112;2023-07-13T11:25:28;25.50;25.70
17762;DHT22;9005;48.838;10.112;2023-07-13T11:28:16;25.80;24.00
17762;DHT22;9005;48.838;10.112;2023-07-13T11:30:46;26.50;23.70
17762;DHT22;9005;48.838;10.112;2023-07-13T11:33:17;27.00;23.00
17762;DHT22;9005;48.838;10.112;2023-07-13T11:35:49;27.00;23.10
17762;DHT22;9005;48.838;10.112;2023-07-13T11:38:20;27.00;22.20
17762;DHT22;9005;48.838;10.112;2023-07-13T11:40:50;27.10;23.90
17762;DHT22;9005;48.838;10.112;2023-07-13T11:43:17;27.30;23.30
17762;DHT22;9005;48.838;10.112;2023-07-13T11:45:44;27.80;22.30
17762;DHT22;9005;48.838;10.112;2023-07-13T11:48:24;27.90;21.10
17762;DHT22;9005;48.838;10.112;2023-07-13T11:50:57;27.60;21.30
17762;DHT22;9005;48.838;10.112;2023-07-13T11:53:30;26.90;20.00
17762;DHT22;9005;48.838;10.112;2023-07-13T11:55:57;25.80;20.40
17762;DHT22;9005;48.838;10.112;2023-07-13T11:58:25;25.30;21.80
17762;DHT22;9005;48.838;10.112;2023-07-13T12:00:55;25.50;22.10
17762;DHT22;9005;48.838;10.112;2023-07-13T12:03:25;25.90;21.30
17762;DHT22;9005;48.838;10.112;2023-07-13T12:05:56;26.00;20.90
17762;DHT22;9005;48.838;10.112;2023-07-13T12:08:23;26.50;21.80
17762;DHT22;9005;48.838;10.112;2023-07-13T12:10:59;27.10;20.50
17762;DHT22;9005;48.838;10.112;2023-07-13T12:13:27;27.40;19.80
17762;DHT22;9005;48.838;10.112;2023-07-13T12:15:56;27.30;19.40
17762;DHT22;9005;48.838;10.112;2023-07-13T12:18:29;27.60;18.30
17762;DHT22;9005;48.838;10.112;2023-07-13T12:20:58;27.90;19.70
17762;DHT22;9005;48.838;10.112;2023-07-13T12:23:29;28.60;20.20
17762;DHT22;9005;48.838;10.112;2023-07-13T12:26:00;28.90;17.70
17762;DHT22;9005;48.838;10.112;2023-07-13T12:28:32;28.70;17.60
17762;DHT22;9005;48.838;10.112;2023-07-13T12:31:00;28.30;19.40
17762;DHT22;9005;48.838;10.112;2023-07-13T12:33:28;28.10;18.50
17762;DHT22;9005;48.838;10.112;2023-07-13T12:35:56;27.80;20.10
17762;DHT22;9005;48.838;10.112;2023-07-13T12:38:25;27.70;20.00
17762;DHT22;9005;48.838;10.112;2023-07-13T12:40:52;27.80;20.60
17762;DHT22;9005;48.838;10.112;2023-07-13T12:43:22;28.20;19.70
17762;DHT22;9005;48.838;10.112;2023-07-13T12:45:57;28.70;20.20
17762;DHT22;9005;48.838;10.112;2023-07-13T12:48:25;29.10;19.80
17762;DHT22;9005;48.838;10.112;2023-07-13T12:50:54;29.30;19.00
17762;DHT22;9005;48.838;10.112;2023-07-13T12:53:23;28.60;19.30
17762;DHT22;9005;48.838;10.112;2023-07-13T12:55:52;27.60;20.50
17762;DHT22;9005;48.838;10.112;2023-07-13T12:58:26;26.80;20.80
17762;DHT22;9005;48.838;10.112;2023-07-13T13:00:55;26.30;21.40
17762;DHT22;9005;48.838;10.112;2023-07-13T13:03:26;26.60;23.20
17762;DHT22;9005;48.838;10.112;2023-07-13T13:05:59;27.80;22.90
17762;DHT22;9005;48.838;10.112;2023-07-13T13:08:28;29.50;20.20
17762;DHT22;9005;48.838;10.112;2023-07-13T13:10:55;29.90;17.70
17762;DHT22;9005;48.838;10.112;2023-07-13T13:13:23;29.30;17.30
17762;DHT22;9005;48.838;10.112;2023-07-13T13:15:51;29.10;17.80
17762;DHT22;9005;48.838;10.112;2023-07-13T13:18:18;29.30;17.60
17762;DHT22;9005;48.838;10.112;2023-07-13T13:20:46;29.20;18.00
17762;DHT22;9005;48.838;10.112;2023-07-13T13:23:13;29.20;18.80
17762;DHT22;9005;48.838;10.112;2023-07-13T13:25:43;29.50;19.50
17762;DHT22;9005;48.838;10.112;2023-07-13T13:28:16;30.00;19.30
17762;DHT22;9005;48.838;10.112;2023-07-13T13:30:46;30.60;18.00
17762;DHT22;9005;48.838;10.112;2023-07-13T13:33:15;30.90;16.80
17762;DHT22;9005;48.838;10.112;2023-07-13T13:35:42;31.20;17.80
17762;DHT22;9005;48.838;10.112;2023-07-13T13:38:12;31.60;18.30
17762;DHT22;9005;48.838;10.112;2023-07-13T13:40:40;32.10;16.70
17762;DHT22;9005;48.838;10.112;2023-07-13T13:43:15;32.60;15.90
17762;DHT22;9005;48.838;10.112;2023-07-13T13:45:44;33.10;14.60
17762;DHT22;9005;48.838;10.112;2023-07-13T13:48:16;33.00;14.20
17762;DHT22;9005;48.838;10.112;2023-07-13T13:50:44;32.30;14.50
17762;DHT22;9005;48.838;10.112;2023-07-13T13:53:12;31.10;14.90
17762;DHT22;9005;48.838;10.112;2023-07-13T13:55:39;31.00;16.00
17762;DHT22;9005;48.838;10.112;2023-07-13T13:58:08;31.00;15.20
17762;DHT22;9005;48.838;10.112;2023-07-13T14:00:35;30.90;16.20
17762;DHT22;9005;48.838;10.112;2023-07-13T14:03:04;30.90;15.90
17762;DHT22;9005;48.838;10.112;2023-07-13T14:05:32;30.80;16.30
17762;DHT22;9005;48.838;10.112;2023-07-13T14:07:59;30.50;16.70
17762;DHT22;9005;48.838;10.112;2023-07-13T14:10:26;29.80;16.70
17762;DHT22;9005;48.838;10.112;2023-07-13T14:12:56;28.90;17.50
17762;DHT22;9005;48.838;10.112;2023-07-13T14:15:25;28.10;18.50
17762;DHT22;9005;48.838;10.112;2023-07-13T14:17:52;27.40;19.90
17762;DHT22;9005;48.838;10.112;2023-07-13T14:20:22;27.20;19.80
17762;DHT22;9005;48.838;10.112;2023-07-13T14:22:50;27.60;21.30
17762;DHT22;9005;48.838;10.112;2023-07-13T14:25:19;28.00;20.20
17762;DHT22;9005;48.838;10.112;2023-07-13T14:27:49;28.30;19.20
17762;DHT22;9005;48.838;10.112;2023-07-13T14:30:21;27.70;20.30
17762;DHT22;9005;48.838;10.112;2023-07-13T14:32:48;27.40;20.90
17762;DHT22;9005;48.838;10.112;2023-07-13T14:35:17;27.10;21.70
17762;DHT22;9005;48.838;10.112;2023-07-13T14:37:45;26.60;21.10
17762;DHT22;9005;48.838;10.112;2023-07-13T14:40:13;26.10;22.70
17762;DHT22;9005;48.838;10.112;2023-07-13T14:42:40;26.10;22.40
17762;DHT22;9005;48.838;10.112;2023-07-13T14:45:13;26.10;23.20
17762;DHT22;9005;48.838;10.112;2023-07-13T14:47:41;26.00;23.80
17762;DHT22;9005;48.838;10.112;2023-07-13T14:50:13;26.00;23.60
17762;DHT22;9005;48.838;10.112;2023-07-13T14:52:41;26.20;24.20
17762;DHT22;9005;48.838;10.112;2023-07-13T14:55:12;26.60;23.30
17762;DHT22;9005;48.838;10.112;2023-07-13T14:57:39;26.60;23.20
17762;DHT22;9005;48.838;10.112;2023-07-13T15:00:13;26.40;22.90
17762;DHT22;9005;48.838;10.112;2023-07-13T15:02:44;25.90;22.80
17762;DHT22;9005;48.838;10.112;2023-07-13T15:05:13;26.10;23.00
17762;DHT22;9005;48.838;10.112;2023-07-13T15:07:41;27.20;21.60
17762;DHT22;9005;48.838;10.112;2023-07-13T15:10:15;28.00;19.90
17762;DHT22;9005;48.838;10.112;2023-07-13T15:12:42;28.50;19.10
17762;DHT22;9005;48.838;10.112;2023-07-13T15:15:09;29.10;18.60
17762;DHT22;9005;48.838;10.112;2023-07-13T15:17:37;29.80;16.80
17762;DHT22;9005;48.838;10.112;2023-07-13T15:20:11;29.90;16.90
17762;DHT22;9005;48.838;10.112;2023-07-13T15:22:41;29.70;16.50
17762;DHT22;9005;48.838;10.112;2023-07-13T15:25:19;29.50;17.00
17762;DHT22;9005;48.838;10.112;2023-07-13T15:27:46;29.40;16.60
17762;DHT22;9005;48.838;10.112;2023-07-13T15:30:13;28.70;16.60
17762;DHT22;9005;48.838;10.112;2023-07-13T15:32:41;27.80;17.20
17762;DHT22;9005;48.838;10.112;2023-07-13T15:35:14;26.90;18.60
17762;DHT22;9005;48.838;10.112;2023-07-13T16:17:24;26.90;19.60
17762;DHT22;9005;48.838;10.112;2023-07-13T16:19:50;26.80;20.10
17762;DHT22;9005;48.838;10.112;2023-07-13T16:22:19;26.50;21.60
17762;DHT22;9005;48.838;10.112;2023-07-13T16:24:46;26.10;21.60
17762;DHT22;9005;48.838;10.112;2023-07-13T16:27:13;25.90;21.70
17762;DHT22;9005;48.838;10.112;2023-07-13T16:29:40;25.70;22.80
17762;DHT22;9005;48.838;10.112;2023-07-13T16:32:11;25.50;22.70
17762;DHT22;9005;48.838;10.112;2023-07-13T16:34:40;25.20;23.10
17762;DHT22;9005;48.838;10.112;2023-07-13T16:37:13;24.90;23.50
17762;DHT22;9005;48.838;10.112;2023-07-13T16:39:44;24.70;24.70
17762;DHT22;9005;48.838;10.112;2023-07-13T16:42:12;24.60;25.30
17762;DHT22;9005;48.838;10.112;2023-07-13T16:44:39;24.40;25.60
17762;DHT22;9005;48.838;10.112;2023-07-13T16:47:11;24.40;25.70
17762;DHT22;9005;48.838;10.112;2023-07-13T16:49:40;24.50;26.50
17762;DHT22;9005;48.838;10.112;2023-07-13T16:52:09;24.70;25.80
17762;DHT22;9005;48.838;10.112;2023-07-13T16:54:38;24.90;25.70
17762;DHT22;9005;48.838;10.112;2023-07-13T16:57:12;24.90;25.10
17762;DHT22;9005;48.838;10.112;2023-07-13T16:59:39;24.80;25.60
17762;DHT22;9005;48.838;10.112;2023-07-13T17:02:30;24.60;26.20
17762;DHT22;9005;48.838;10.112;2023-07-13T17:04:58;24.40;26.40
17762;DHT22;9005;48.838;10.112;2023-07-13T17:07:25;24.20;26.70
17762;DHT22;9005;48.838;10.112;2023-07-13T17:09:54;24.00;28.00
17762;DHT22;9005;48.838;10.112;2023-07-13T17:12:21;23.90;28.90
17762;DHT22;9005;48.838;10.112;2023-07-13T17:14:48;23.90;29.10
17762;DHT22;9005;48.838;10.112;2023-07-13T17:17:17;24.10;28.00
17762;DHT22;9005;48.838;10.112;2023-07-13T17:19:45;24.30;28.70
17762;DHT22;9005;48.838;10.112;2023-07-13T17:22:13;24.70;28.80
17762;DHT22;9005;48.838;10.112;2023-07-13T17:24:44;25.20;28.80
17762;DHT22;9005;48.838;10.112;2023-07-13T17:27:12;26.10;25.60
17762;DHT22;9005;48.838;10.112;2023-07-13T17:29:38;26.50;24.00
17762;DHT22;9005;48.838;10.112;2023-07-13T17:32:06;26.80;22.50
17762;DHT22;9005;48.838;10.112;2023-07-13T17:34:36;26.50;21.90
17762;DHT22;9005;48.838;10.112;2023-07-13T17:37:14;26.10;22.90
17762;DHT22;9005;48.838;10.112;2023-07-13T17:39:41;25.60;23.70
17762;DHT22;9005;48.838;10.112;2023-07-13T17:42:09;25.30;24.50
17762;DHT22;9005;48.838;10.112;2023-07-13T17:44:37;25.20;24.40
17762;DHT22;9005;48.838;10.112;2023-07-13T17:47:04;25.10;24.80
17762;DHT22;9005;48.838;10.112;2023-07-13T17:49:35;25.10;24.40